Time,TemperatureF,DewpointF,PressureIn,WindDirection,WindDirectionDegrees,WindSpeedMPH,WindSpeedGustMPH,Humidity,HourlyPrecipIn,Conditions,Clouds,dailyrainin,SoftwareType,DateUTC
2013-06-20 00:00:00,85.7,70.2,29.84,SW,231,8.0,22.0,60,0.00,,,0.00,VWS V15.00,2013-06-20 05:00:00,
2013-06-20 00:02:00,83.1,69.7,29.87,SW,216,15.0,15.0,64,0.00,,,0.00,VWS V13.01,2013-06-20 05:02:00,
2013-06-20 00:07:00,82.9,69.5,29.87,SW,233,9.0,17.0,64,0.00,,,0.00,VWS V13.01,2013-06-20 05:07:00,
2013-06-20 00:10:00,85.2,70.2,29.84,SSW,207,11.0,25.0,61,0.00,,,0.00,VWS V15.00,2013-06-20 05:10:00,
2013-06-20 00:12:00,82.7,69.8,29.87,SSW,194,16.0,17.0,65,0.00,,,0.00,VWS V13.01,2013-06-20 05:12:00,
2013-06-20 00:17:00,82.5,69.6,29.86,SSW,199,9.0,18.0,65,0.00,,,0.00,VWS V13.01,2013-06-20 05:17:00,
2013-06-20 00:20:00,84.8,69.9,29.84,South,188,18.0,18.0,61,0.00,,,0.00,VWS V15.00,2013-06-20 05:20:00,
2013-06-20 00:22:00,82.3,69.8,29.86,SW,220,7.0,12.0,66,0.00,,,0.00,VWS V13.01,2013-06-20 05:22:00,
2013-06-20 00:27:00,82.2,69.7,29.86,SW,220,1.0,12.0,66,0.00,,,0.00,VWS V13.01,2013-06-20 05:27:00,
2013-06-20 00:30:00,84.4,69.5,29.86,WSW,237,1.0,21.0,61,0.00,,,0.00,VWS V15.00,2013-06-20 05:30:00,
2013-06-20 00:32:00,82.0,69.5,29.87,SW,236,7.0,12.0,66,0.00,,,0.00,VWS V13.01,2013-06-20 05:32:00,
2013-06-20 00:37:00,81.8,69.8,29.87,SSW,192,7.0,13.0,67,0.00,,,0.00,VWS V13.01,2013-06-20 05:37:00,
2013-06-20 00:40:00,84.0,69.6,29.86,SSW,213,2.0,14.0,62,0.00,,,0.00,VWS V15.00,2013-06-20 05:40:00,
2013-06-20 00:43:00,81.7,69.7,29.87,South,186,13.0,13.0,67,0.00,,,0.00,VWS V13.01,2013-06-20 05:43:00,
2013-06-20 00:48:00,81.6,69.6,29.87,South,176,5.0,14.0,67,0.00,,,0.00,VWS V13.01,2013-06-20 05:48:00,
2013-06-20 00:50:00,83.6,69.7,29.87,SSW,201,11.0,17.0,63,0.00,,,0.00,VWS V15.00,2013-06-20 05:50:00,
2013-06-20 00:53:00,81.4,69.4,29.87,WSW,250,0.0,8.0,67,0.00,,,0.00,VWS V13.01,2013-06-20 05:53:00,
2013-06-20 00:58:00,81.1,69.6,29.87,SSW,212,1.0,14.0,68,0.00,,,0.00,VWS V13.01,2013-06-20 05:58:00,
2013-06-20 01:00:00,83.2,69.8,29.87,SSW,198,16.0,20.0,64,0.00,,,0.00,VWS V15.00,2013-06-20 06:00:00,
2013-06-20 01:03:00,81.0,69.9,29.88,SSW,203,6.0,10.0,69,0.00,,,0.00,VWS V13.01,2013-06-20 06:03:00,
2013-06-20 01:08:00,80.8,69.7,29.88,SSW,194,2.0,13.0,69,0.00,,,0.00,VWS V13.01,2013-06-20 06:08:00,
2013-06-20 01:10:00,82.7,69.8,29.87,South,175,0.0,17.0,65,0.00,,,0.00,VWS V15.00,2013-06-20 06:10:00,
2013-06-20 01:13:00,80.7,70.0,29.88,SSW,194,0.0,8.0,70,0.00,,,0.00,VWS V13.01,2013-06-20 06:13:00,
2013-06-20 01:18:00,80.6,69.9,29.88,SSE,150,6.0,9.0,70,0.00,,,0.00,VWS V13.01,2013-06-20 06:18:00,
2013-06-20 01:20:00,82.4,69.5,29.86,SSW,194,11.0,18.0,65,0.00,,,0.00,VWS V15.00,2013-06-20 06:20:00,
2013-06-20 01:23:00,80.4,69.7,29.88,SSW,200,0.0,10.0,70,0.00,,,0.00,VWS V13.01,2013-06-20 06:23:00,
2013-06-20 01:28:00,80.1,69.9,29.88,SSW,198,11.0,13.0,71,0.00,,,0.00,VWS V13.01,2013-06-20 06:28:00,
2013-06-20 01:30:00,82.1,69.6,29.87,SW,215,6.0,14.0,66,0.00,,,0.00,VWS V15.00,2013-06-20 06:30:00,
2013-06-20 01:33:00,79.9,69.7,29.87,SSW,197,7.0,13.0,71,0.00,,,0.00,VWS V13.01,2013-06-20 06:33:00,
2013-06-20 01:38:00,79.7,69.5,29.87,SW,225,0.0,13.0,71,0.00,,,0.00,VWS V13.01,2013-06-20 06:38:00,
2013-06-20 01:40:00,81.7,69.7,29.87,SSE,163,2.0,13.0,67,0.00,,,0.00,VWS V15.00,2013-06-20 06:40:00,
2013-06-20 01:43:00,79.6,69.8,29.87,SSW,196,6.0,10.0,72,0.00,,,0.00,VWS V13.01,2013-06-20 06:43:00,
2013-06-20 01:48:00,79.5,69.3,29.87,SW,214,6.0,12.0,71,0.00,,,0.00,VWS V13.01,2013-06-20 06:48:00,
2013-06-20 01:50:00,81.4,69.4,29.87,SSW,207,0.0,14.0,67,0.00,,,0.00,VWS V15.00,2013-06-20 06:50:00,
2013-06-20 01:53:00,79.4,69.2,29.87,SW,233,4.0,12.0,71,0.00,,,0.00,VWS V13.01,2013-06-20 06:53:00,
2013-06-20 01:58:00,79.3,69.5,29.87,SW,233,0.0,12.0,72,0.00,,,0.00,VWS V13.01,2013-06-20 06:58:00,
2013-06-20 02:00:00,81.0,69.9,29.88,South,191,8.0,14.0,69,0.00,,,0.00,VWS V15.00,2013-06-20 07:00:00,
2013-06-20 02:03:00,79.1,69.3,29.87,SW,220,0.0,0.0,72,0.00,,,0.00,VWS V13.01,2013-06-20 07:03:00,
2013-06-20 02:08:00,78.8,69.4,29.87,SW,219,0.0,0.0,73,0.00,,,0.00,VWS V13.01,2013-06-20 07:08:00,
2013-06-20 02:10:00,80.8,69.7,29.88,South,187,0.0,13.0,69,0.00,,,0.00,VWS V15.00,2013-06-20 07:10:00,
2013-06-20 02:13:00,78.7,69.3,29.87,SSW,199,0.0,0.0,73,0.00,,,0.00,VWS V13.01,2013-06-20 07:13:00,
2013-06-20 02:18:00,78.7,68.9,29.87,WSW,241,0.0,9.0,72,0.00,,,0.00,VWS V13.01,2013-06-20 07:18:00,
2013-06-20 02:20:00,80.4,69.7,29.88,SSW,200,0.0,11.0,70,0.00,,,0.00,VWS V15.00,2013-06-20 07:20:00,
2013-06-20 02:23:00,78.6,69.2,29.87,SW,236,0.0,0.0,73,0.00,,,0.00,VWS V13.01,2013-06-20 07:23:00,
2013-06-20 02:28:00,78.5,69.1,29.87,SSW,202,6.0,7.0,73,0.00,,,0.00,VWS V13.01,2013-06-20 07:28:00,
2013-06-20 02:30:00,80.0,69.8,29.87,SSW,198,13.0,13.0,71,0.00,,,0.00,VWS V15.00,2013-06-20 07:30:00,
2013-06-20 02:33:00,78.5,69.1,29.87,SW,214,0.0,4.0,73,0.00,,,0.00,VWS V13.01,2013-06-20 07:33:00,
2013-06-20 02:38:00,78.5,69.1,29.87,SSW,200,0.0,4.0,73,0.00,,,0.00,VWS V13.01,2013-06-20 07:38:00,
2013-06-20 02:40:00,79.6,69.4,29.87,SSW,202,0.0,13.0,71,0.00,,,0.00,VWS V15.00,2013-06-20 07:40:00,
2013-06-20 02:43:00,78.4,69.0,29.87,SSW,207,0.0,0.0,73,0.00,,,0.00,VWS V13.01,2013-06-20 07:43:00,
2013-06-20 02:48:00,78.2,69.2,29.86,South,190,0.0,0.0,74,0.00,,,0.00,VWS V13.01,2013-06-20 07:48:00,
2013-06-20 02:50:00,79.4,69.2,29.87,SSW,209,7.0,12.0,71,0.00,,,0.00,VWS V15.00,2013-06-20 07:50:00,
2013-06-20 02:53:00,78.2,69.2,29.86,SSW,198,0.0,0.0,74,0.00,,,0.00,VWS V13.01,2013-06-20 07:53:00,
2013-06-20 02:58:00,78.1,69.1,29.86,SW,232,0.0,0.0,74,0.00,,,0.00,VWS V13.01,2013-06-20 07:58:00,
2013-06-20 03:00:00,79.2,69.4,29.87,SW,214,0.0,12.0,72,0.00,,,0.00,VWS V15.00,2013-06-20 08:00:00,
2013-06-20 03:03:00,78.0,69.1,29.86,SSW,195,2.0,7.0,74,0.00,,,0.00,VWS V13.01,2013-06-20 08:03:00,
2013-06-20 03:08:00,78.0,69.1,29.86,South,169,0.0,9.0,74,0.00,,,0.00,VWS V13.01,2013-06-20 08:08:00,
2013-06-20 03:10:00,78.7,69.3,29.87,SSW,199,0.0,0.0,73,0.00,,,0.00,VWS V15.00,2013-06-20 08:10:00,
2013-06-20 03:13:00,78.0,69.1,29.86,SSW,208,0.0,0.0,74,0.00,,,0.00,VWS V13.01,2013-06-20 08:13:00,
2013-06-20 03:18:00,77.8,69.2,29.86,SSW,207,0.0,4.0,75,0.00,,,0.00,VWS V13.01,2013-06-20 08:18:00,
2013-06-20 03:20:00,78.7,69.3,29.87,WSW,241,0.0,9.0,73,0.00,,,0.00,VWS V15.00,2013-06-20 08:20:00,
2013-06-20 03:23:00,77.7,69.2,29.86,SSW,201,2.0,7.0,75,0.00,,,0.00,VWS V13.01,2013-06-20 08:23:00,
2013-06-20 03:28:00,77.6,69.1,29.86,SSW,198,0.0,7.0,75,0.00,,,0.00,VWS V13.01,2013-06-20 08:28:00,
2013-06-20 03:30:00,78.4,69.0,29.87,SSW,194,0.0,9.0,73,0.00,,,0.00,VWS V15.00,2013-06-20 08:30:00,
2013-06-20 03:33:00,77.5,69.0,29.86,South,185,0.0,0.0,75,0.00,,,0.00,VWS V13.01,2013-06-20 08:33:00,
2013-06-20 03:38:00,77.4,68.9,29.86,SSW,194,0.0,0.0,75,0.00,,,0.00,VWS V13.01,2013-06-20 08:38:00,
2013-06-20 03:40:00,78.4,69.0,29.87,SSW,209,0.0,4.0,73,0.00,,,0.00,VWS V15.00,2013-06-20 08:40:00,
2013-06-20 03:44:00,77.4,69.2,29.86,South,175,0.0,0.0,76,0.00,,,0.00,VWS V13.01,2013-06-20 08:44:00,
2013-06-20 03:49:00,77.4,69.2,29.86,South,178,0.0,0.0,76,0.00,,,0.00,VWS V13.01,2013-06-20 08:49:00,
2013-06-20 03:50:00,78.2,69.2,29.86,SSW,198,0.0,0.0,74,0.00,,,0.00,VWS V15.00,2013-06-20 08:50:00,
2013-06-20 03:54:00,77.4,69.2,29.86,SSW,193,0.0,9.0,76,0.00,,,0.00,VWS V13.01,2013-06-20 08:54:00,
2013-06-20 03:59:00,77.3,69.2,29.86,South,191,0.0,9.0,76,0.00,,,0.00,VWS V13.01,2013-06-20 08:59:00,
2013-06-20 04:00:00,78.1,69.1,29.86,SSW,205,0.0,4.0,74,0.00,,,0.00,VWS V15.00,2013-06-20 09:00:00,
2013-06-20 04:04:00,77.2,69.4,29.86,SSW,199,0.0,7.0,77,0.00,,,0.00,VWS V13.01,2013-06-20 09:04:00,
2013-06-20 04:09:00,77.1,69.3,29.86,South,180,0.0,7.0,77,0.00,,,0.00,VWS V13.01,2013-06-20 09:09:00,
2013-06-20 04:10:00,78.0,69.1,29.86,SSW,211,0.0,9.0,74,0.00,,,0.00,VWS V15.00,2013-06-20 09:10:00,
2013-06-20 04:14:00,77.0,69.6,29.86,SW,217,0.0,6.0,78,0.00,,,0.00,VWS V13.01,2013-06-20 09:14:00,
2013-06-20 04:19:00,76.8,69.4,29.86,South,190,2.0,8.0,78,0.00,,,0.00,VWS V13.01,2013-06-20 09:19:00,
2013-06-20 04:20:00,77.7,69.2,29.86,SSW,212,0.0,7.0,75,0.00,,,0.00,VWS V15.00,2013-06-20 09:20:00,
2013-06-20 04:24:00,76.7,69.7,29.86,South,184,0.0,7.0,79,0.00,,,0.00,VWS V13.01,2013-06-20 09:24:00,
2013-06-20 04:29:00,76.7,69.7,29.86,SSW,207,0.0,9.0,79,0.00,,,0.00,VWS V13.01,2013-06-20 09:29:00,
2013-06-20 04:30:00,77.5,69.0,29.86,SSW,195,0.0,7.0,75,0.00,,,0.00,VWS V15.00,2013-06-20 09:30:00,
2013-06-20 04:34:00,76.6,69.6,29.86,SSW,200,0.0,0.0,79,0.00,,,0.00,VWS V13.01,2013-06-20 09:34:00,
2013-06-20 04:39:00,76.5,69.9,29.86,SW,214,0.0,8.0,80,0.00,,,0.00,VWS V13.01,2013-06-20 09:39:00,
2013-06-20 04:40:00,77.5,69.0,29.86,SSE,158,0.0,0.0,75,0.00,,,0.00,VWS V15.00,2013-06-20 09:40:00,
2013-06-20 04:44:00,76.4,69.8,29.86,SSW,213,7.0,7.0,80,0.00,,,0.00,VWS V13.01,2013-06-20 09:44:00,
2013-06-20 04:49:00,76.4,69.8,29.86,West,279,4.0,12.0,80,0.00,,,0.00,VWS V13.01,2013-06-20 09:49:00,
2013-06-20 04:50:00,77.4,69.2,29.86,SSE,163,0.0,0.0,76,0.00,,,0.00,VWS V15.00,2013-06-20 09:50:00,
2013-06-20 04:54:00,76.2,69.9,29.86,SSW,200,6.0,6.0,81,0.00,,,0.00,VWS V13.01,2013-06-20 09:54:00,
2013-06-20 04:59:00,76.2,69.9,29.86,SSW,198,0.0,9.0,81,0.00,,,0.00,VWS V13.01,2013-06-20 09:59:00,
2013-06-20 05:00:00,77.3,69.5,29.86,South,188,0.0,9.0,77,0.00,,,0.00,VWS V15.00,2013-06-20 10:00:00,
2013-06-20 05:04:00,76.2,70.3,29.87,SSW,196,0.0,0.0,82,0.00,,,0.00,VWS V13.01,2013-06-20 10:04:00,
2013-06-20 05:09:00,76.1,70.2,29.87,South,191,0.0,8.0,82,0.00,,,0.00,VWS V13.01,2013-06-20 10:09:00,
2013-06-20 05:10:00,77.0,69.2,29.86,SSW,192,0.0,10.0,77,0.00,,,0.00,VWS V15.00,2013-06-20 10:10:00,
2013-06-20 05:14:00,76.0,70.1,29.87,South,178,0.0,11.0,82,0.00,,,0.00,VWS V13.01,2013-06-20 10:14:00,
2013-06-20 05:19:00,76.0,70.5,29.87,South,184,0.0,11.0,83,0.00,,,0.00,VWS V13.01,2013-06-20 10:19:00,
2013-06-20 05:20:00,76.8,69.4,29.86,South,188,0.0,10.0,78,0.00,,,0.00,VWS V15.00,2013-06-20 10:20:00,
2013-06-20 05:24:00,75.8,70.3,29.87,South,186,0.0,0.0,83,0.00,,,0.00,VWS V13.01,2013-06-20 10:24:00,
2013-06-20 05:29:00,75.8,70.6,29.87,SSW,199,1.0,1.0,84,0.00,,,0.00,VWS V13.01,2013-06-20 10:29:00,
2013-06-20 05:30:00,76.7,69.7,29.86,SSW,207,0.0,9.0,79,0.00,,,0.00,VWS V15.00,2013-06-20 10:30:00,
2013-06-20 05:34:00,75.8,70.6,29.87,South,182,6.0,9.0,84,0.00,,,0.00,VWS V13.01,2013-06-20 10:34:00,
2013-06-20 05:39:00,75.7,70.5,29.87,SSW,195,0.0,11.0,84,0.00,,,0.00,VWS V13.01,2013-06-20 10:39:00,
2013-06-20 05:40:00,76.5,69.9,29.86,SSW,192,0.0,8.0,80,0.00,,,0.00,VWS V15.00,2013-06-20 10:40:00,
2013-06-20 05:44:00,75.7,70.5,29.87,South,183,0.0,0.0,84,0.00,,,0.00,VWS V13.01,2013-06-20 10:44:00,
2013-06-20 05:49:00,75.6,70.8,29.88,SSW,194,0.0,10.0,85,0.00,,,0.00,VWS V13.01,2013-06-20 10:49:00,
2013-06-20 05:50:00,76.3,70.1,29.86,SW,215,0.0,12.0,81,0.00,,,0.00,VWS V15.00,2013-06-20 10:50:00,
2013-06-20 05:54:00,75.5,70.7,29.88,SW,221,0.0,0.0,85,0.00,,,0.00,VWS V13.01,2013-06-20 10:54:00,
2013-06-20 05:59:00,75.4,70.6,29.88,SSE,161,0.0,7.0,85,0.00,,,0.00,VWS V13.01,2013-06-20 10:59:00,
2013-06-20 06:00:00,76.2,70.3,29.87,South,178,0.0,9.0,82,0.00,,,0.00,VWS V15.00,2013-06-20 11:00:00,
2013-06-20 06:04:00,75.3,70.5,29.88,SW,226,0.0,0.0,85,0.00,,,0.00,VWS V13.01,2013-06-20 11:04:00,
2013-06-20 06:09:00,75.3,70.5,29.88,South,188,0.0,3.0,85,0.00,,,0.00,VWS V13.01,2013-06-20 11:09:00,
2013-06-20 06:10:00,76.1,70.2,29.87,SSW,195,7.0,8.0,82,0.00,,,0.00,VWS V15.00,2013-06-20 11:10:00,
2013-06-20 06:14:00,75.3,70.5,29.88,WSW,252,4.0,9.0,85,0.00,,,0.00,VWS V13.01,2013-06-20 11:14:00,
2013-06-20 06:19:00,75.2,70.4,29.89,SSE,149,0.0,9.0,85,0.00,,,0.00,VWS V13.01,2013-06-20 11:19:00,
2013-06-20 06:20:00,75.9,70.4,29.87,South,191,0.0,11.0,83,0.00,,,0.00,VWS V15.00,2013-06-20 11:20:00,
2013-06-20 06:24:00,75.2,70.4,29.89,SSE,167,0.0,8.0,85,0.00,,,0.00,VWS V13.01,2013-06-20 11:24:00,
2013-06-20 06:29:00,75.2,70.4,29.89,South,183,0.0,8.0,85,0.00,,,0.00,VWS V13.01,2013-06-20 11:29:00,
2013-06-20 06:30:00,75.8,70.6,29.87,SE,142,5.0,8.0,84,0.00,,,0.00,VWS V15.00,2013-06-20 11:30:00,
2013-06-20 06:34:00,75.2,70.4,29.89,SSW,195,0.0,0.0,85,0.00,,,0.00,VWS V13.01,2013-06-20 11:34:00,
2013-06-20 06:39:00,75.1,70.6,29.89,SSW,196,0.0,0.0,86,0.00,,,0.00,VWS V13.01,2013-06-20 11:39:00,
2013-06-20 06:40:00,75.7,70.5,29.87,SW,228,0.0,11.0,84,0.00,,,0.00,VWS V15.00,2013-06-20 11:40:00,
2013-06-20 06:44:00,75.1,70.6,29.89,SSW,202,7.0,9.0,86,0.00,,,0.00,VWS V13.01,2013-06-20 11:44:00,
2013-06-20 06:49:00,75.1,70.3,29.90,SSW,211,0.0,9.0,85,0.00,,,0.00,VWS V13.01,2013-06-20 11:49:00,
2013-06-20 06:50:00,75.6,70.8,29.88,SSW,194,0.0,10.0,85,0.00,,,0.00,VWS V15.00,2013-06-20 11:50:00,
2013-06-20 06:54:00,75.2,70.4,29.90,SSW,193,4.0,8.0,85,0.00,,,0.00,VWS V13.01,2013-06-20 11:54:00,
2013-06-20 06:59:00,75.2,70.4,29.90,SSW,198,3.0,10.0,85,0.00,,,0.00,VWS V13.01,2013-06-20 11:59:00,
2013-06-20 07:00:00,75.4,70.6,29.88,SSW,198,0.0,7.0,85,0.00,,,0.00,VWS V15.00,2013-06-20 12:00:00,
2013-06-20 07:04:00,75.2,70.4,29.90,SSW,195,0.0,5.0,85,0.00,,,0.00,VWS V13.01,2013-06-20 12:04:00,
2013-06-20 07:09:00,75.2,70.4,29.90,SSW,213,3.0,10.0,85,0.00,,,0.00,VWS V13.01,2013-06-20 12:09:00,
2013-06-20 07:10:00,75.3,70.5,29.88,South,179,0.0,4.0,85,0.00,,,0.00,VWS V15.00,2013-06-20 12:10:00,
2013-06-20 07:14:00,75.3,70.5,29.90,SSW,207,0.0,0.0,85,0.00,,,0.00,VWS V13.01,2013-06-20 12:14:00,
2013-06-20 07:19:00,75.4,70.6,29.91,SSW,200,6.0,7.0,85,0.00,,,0.00,VWS V13.01,2013-06-20 12:19:00,
2013-06-20 07:20:00,75.2,70.4,29.89,SSW,198,0.0,12.0,85,0.00,,,0.00,VWS V15.00,2013-06-20 12:20:00,
2013-06-20 07:24:00,75.5,70.7,29.91,SSW,194,0.0,9.0,85,0.00,,,0.00,VWS V13.01,2013-06-20 12:24:00,
2013-06-20 07:29:00,75.6,70.8,29.91,SSW,193,0.0,9.0,85,0.00,,,0.00,VWS V13.01,2013-06-20 12:29:00,
2013-06-20 07:30:00,75.2,70.4,29.89,SSW,194,0.0,8.0,85,0.00,,,0.00,VWS V15.00,2013-06-20 12:30:00,
2013-06-20 07:34:00,75.8,71.0,29.91,SSW,201,0.0,4.0,85,0.00,,,0.00,VWS V13.01,2013-06-20 12:34:00,
2013-06-20 07:39:00,76.0,70.8,29.91,SSW,209,0.0,4.0,84,0.00,,,0.00,VWS V13.01,2013-06-20 12:39:00,
2013-06-20 07:40:00,75.1,70.6,29.89,SSW,208,0.0,0.0,86,0.00,,,0.00,VWS V15.00,2013-06-20 12:40:00,
2013-06-20 07:44:00,76.2,71.0,29.91,SSW,205,0.0,4.0,84,0.00,,,0.00,VWS V13.01,2013-06-20 12:44:00,
2013-06-20 07:49:00,76.4,70.9,29.92,SSW,206,7.0,8.0,83,0.00,,,0.00,VWS V13.01,2013-06-20 12:49:00,
2013-06-20 07:50:00,75.1,70.6,29.90,SW,225,4.0,11.0,86,0.00,,,0.00,VWS V15.00,2013-06-20 12:50:00,
2013-06-20 07:55:00,76.5,71.0,29.92,WSW,240,0.0,7.0,83,0.00,,,0.00,VWS V13.01,2013-06-20 12:55:00,
2013-06-20 08:00:00,76.8,71.2,29.92,SSW,213,1.0,7.0,83,0.00,,,0.00,VWS V13.01,2013-06-20 13:00:00,
2013-06-20 08:05:00,76.9,71.0,29.92,SSW,211,0.0,9.0,82,0.00,,,0.00,VWS V13.01,2013-06-20 13:05:00,
2013-06-20 08:10:00,77.1,71.2,29.92,SSW,195,8.0,11.0,82,0.00,,,0.00,VWS V13.01,2013-06-20 13:10:00,
2013-06-20 08:15:00,77.3,71.4,29.92,South,174,5.0,14.0,82,0.00,,,0.00,VWS V13.01,2013-06-20 13:15:00,
2013-06-20 08:20:00,77.4,71.1,29.93,SW,233,0.0,14.0,81,0.00,,,0.00,VWS V13.01,2013-06-20 13:20:00,
2013-06-20 08:25:00,77.5,70.8,29.93,SSW,205,0.0,12.0,80,0.00,,,0.00,VWS V13.01,2013-06-20 13:25:00,
2013-06-20 08:30:00,77.7,71.0,29.93,SSW,195,0.0,12.0,80,0.00,,,0.00,VWS V13.01,2013-06-20 13:30:00,
2013-06-20 08:35:00,77.9,71.2,29.94,SSE,159,7.0,8.0,80,0.00,,,0.00,VWS V13.01,2013-06-20 13:35:00,
2013-06-20 08:40:00,78.0,71.3,29.94,SSW,194,2.0,11.0,80,0.00,,,0.00,VWS V13.01,2013-06-20 13:40:00,
2013-06-20 08:45:00,78.7,71.6,29.94,SSW,213,6.0,16.0,79,0.00,,,0.00,VWS V13.01,2013-06-20 13:45:00,
2013-06-20 08:50:00,79.1,71.7,29.94,SW,225,14.0,16.0,78,0.00,,,0.00,VWS V13.01,2013-06-20 13:50:00,
2013-06-20 08:55:00,79.8,71.6,29.94,SW,232,5.0,18.0,76,0.00,,,0.00,VWS V13.01,2013-06-20 13:55:00,
2013-06-20 09:00:00,80.1,71.5,29.94,SSW,200,11.0,18.0,75,0.00,,,0.00,VWS V13.01,2013-06-20 14:00:00,
2013-06-20 09:05:00,80.3,71.7,29.94,South,176,11.0,16.0,75,0.00,,,0.00,VWS V13.01,2013-06-20 14:05:00,
2013-06-20 09:10:00,80.4,71.4,29.94,SSW,207,7.0,18.0,74,0.00,,,0.00,VWS V13.01,2013-06-20 14:10:00,
2013-06-20 09:15:00,80.7,71.2,29.94,SSW,205,7.0,16.0,73,0.00,,,0.00,VWS V13.01,2013-06-20 14:15:00,
2013-06-20 09:20:00,80.7,71.2,29.95,SSW,195,14.0,17.0,73,0.00,,,0.00,VWS V13.01,2013-06-20 14:20:00,
2013-06-20 09:25:00,80.9,71.4,29.95,SW,217,8.0,15.0,73,0.00,,,0.00,VWS V13.01,2013-06-20 14:25:00,
2013-06-20 09:30:00,81.1,71.2,29.95,SSW,211,10.0,16.0,72,0.00,,,0.00,VWS V13.01,2013-06-20 14:30:00,
2013-06-20 09:35:00,81.4,71.1,29.95,SW,232,5.0,15.0,71,0.00,,,0.00,VWS V13.01,2013-06-20 14:35:00,
2013-06-20 09:40:00,81.6,70.9,29.95,SSW,198,9.0,17.0,70,0.00,,,0.00,VWS V13.01,2013-06-20 14:40:00,
2013-06-20 09:45:00,82.2,71.4,29.95,SW,224,11.0,14.0,70,0.00,,,0.00,VWS V13.01,2013-06-20 14:45:00,
2013-06-20 09:50:00,82.5,70.9,29.96,SSW,209,6.0,14.0,68,0.00,,,0.00,VWS V13.01,2013-06-20 14:50:00,
2013-06-20 09:55:00,82.4,70.8,29.96,SSW,203,7.0,15.0,68,0.00,,,0.00,VWS V13.01,2013-06-20 14:55:00,
2013-06-20 10:00:00,82.5,70.9,29.96,SW,227,6.0,16.0,68,0.00,,,0.00,VWS V13.01,2013-06-20 15:00:00,
2013-06-20 10:05:00,83.0,71.4,29.96,SSW,195,9.0,14.0,68,0.00,,,0.00,VWS V13.01,2013-06-20 15:05:00,
2013-06-20 10:10:00,83.0,71.4,29.96,SSW,202,9.0,15.0,68,0.00,,,0.00,VWS V13.01,2013-06-20 15:10:00,
2013-06-20 10:15:00,83.2,71.6,29.96,SSW,199,9.0,13.0,68,0.00,,,0.00,VWS V13.01,2013-06-20 15:15:00,
2013-06-20 10:20:00,83.7,71.1,29.97,SW,236,7.0,17.0,66,0.00,,,0.00,VWS V13.01,2013-06-20 15:20:00,
2013-06-20 10:25:00,84.1,70.6,29.97,SW,223,10.0,18.0,64,0.00,,,0.00,VWS V13.01,2013-06-20 15:25:00,
2013-06-20 10:30:00,84.5,71.0,29.97,SW,218,18.0,18.0,64,0.00,,,0.00,VWS V13.01,2013-06-20 15:30:00,
2013-06-20 10:35:00,84.7,71.2,29.97,SSW,208,7.0,13.0,64,0.00,,,0.00,VWS V13.01,2013-06-20 15:35:00,
2013-06-20 10:40:00,85.1,71.1,29.97,WSW,238,10.0,14.0,63,0.00,,,0.00,VWS V13.01,2013-06-20 15:40:00,
2013-06-20 10:45:00,86.2,71.2,29.97,SSW,193,2.0,17.0,61,0.00,,,0.00,VWS V13.01,2013-06-20 15:45:00,
2013-06-20 10:50:00,87.0,72.4,29.97,SW,236,8.0,17.0,62,0.00,,,0.00,VWS V13.01,2013-06-20 15:50:00,
2013-06-20 10:55:00,87.1,71.0,29.97,SW,234,6.0,18.0,59,0.00,,,0.00,VWS V13.01,2013-06-20 15:55:00,
2013-06-20 11:00:00,87.6,71.5,29.97,South,173,6.0,18.0,59,0.00,,,0.00,VWS V13.01,2013-06-20 16:00:00,
2013-06-20 11:05:00,87.7,70.6,29.97,SW,217,11.0,19.0,57,0.00,,,0.00,VWS V13.01,2013-06-20 16:05:00,
2013-06-20 11:10:00,87.5,70.9,29.97,South,173,14.0,19.0,58,0.00,,,0.00,VWS V13.01,2013-06-20 16:10:00,
2013-06-20 11:15:00,87.4,70.3,29.96,SW,216,3.0,14.0,57,0.00,,,0.00,VWS V13.01,2013-06-20 16:15:00,
2013-06-20 11:20:00,87.9,70.8,29.96,SW,214,10.0,17.0,57,0.00,,,0.00,VWS V13.01,2013-06-20 16:20:00,
2013-06-20 11:25:00,88.1,71.0,29.96,SSW,211,7.0,16.0,57,0.00,,,0.00,VWS V13.01,2013-06-20 16:25:00,
2013-06-20 11:30:00,88.4,71.8,29.96,SSW,203,0.0,16.0,58,0.00,,,0.00,VWS V13.01,2013-06-20 16:30:00,
2013-06-20 11:35:00,87.9,70.3,29.96,SSW,213,7.0,21.0,56,0.00,,,0.00,VWS V13.01,2013-06-20 16:35:00,
2013-06-20 11:40:00,88.7,70.5,29.96,SSW,213,7.0,21.0,55,0.00,,,0.00,VWS V13.01,2013-06-20 16:40:00,
2013-06-20 11:45:00,89.1,69.8,29.95,SSW,211,7.0,16.0,53,0.00,,,0.00,VWS V13.01,2013-06-20 16:45:00,
2013-06-20 11:50:00,87.1,71.5,29.97,SW,232,11.0,17.0,60,0.00,,,0.00,VWS V15.00,2013-06-20 16:50:00,
2013-06-20 11:51:00,89.0,69.7,29.95,WSW,246,8.0,16.0,53,0.00,,,0.00,VWS V13.01,2013-06-20 16:51:00,
2013-06-20 11:56:00,89.5,70.7,29.95,SW,227,0.0,14.0,54,0.00,,,0.00,VWS V13.01,2013-06-20 16:56:00,
2013-06-20 12:00:00,87.7,71.6,29.97,WSW,237,6.0,18.0,59,0.00,,,0.00,VWS V15.00,2013-06-20 17:00:00,
2013-06-20 12:01:00,90.4,70.4,29.95,SW,236,7.0,14.0,52,0.00,,,0.00,VWS V13.01,2013-06-20 17:01:00,
2013-06-20 12:06:00,89.6,70.8,29.95,South,190,9.0,14.0,54,0.00,,,0.00,VWS V13.01,2013-06-20 17:06:00,
2013-06-20 12:10:00,87.4,70.3,29.97,SSW,202,8.0,19.0,57,0.00,,,0.00,VWS V15.00,2013-06-20 17:10:00,
2013-06-20 12:11:00,89.3,71.0,29.95,SSW,213,7.0,14.0,55,0.00,,,0.00,VWS V13.01,2013-06-20 17:11:00,
2013-06-20 12:16:00,89.6,70.2,29.95,SW,223,12.0,13.0,53,0.00,,,0.00,VWS V13.01,2013-06-20 17:16:00,
2013-06-20 12:20:00,87.8,70.7,29.96,SSW,213,6.0,17.0,57,0.00,,,0.00,VWS V15.00,2013-06-20 17:20:00,
2013-06-20 12:21:00,89.6,70.2,29.95,SW,233,9.0,13.0,53,0.00,,,0.00,VWS V13.01,2013-06-20 17:21:00,
2013-06-20 12:26:00,89.4,70.6,29.95,SSW,197,5.0,15.0,54,0.00,,,0.00,VWS V13.01,2013-06-20 17:26:00,
2013-06-20 12:30:00,88.5,71.8,29.96,SSW,213,10.0,18.0,58,0.00,,,0.00,VWS V15.00,2013-06-20 17:30:00,
2013-06-20 12:31:00,89.5,69.0,29.95,SW,228,6.0,16.0,51,0.00,,,0.00,VWS V13.01,2013-06-20 17:31:00,
2013-06-20 12:36:00,89.8,69.8,29.95,SSE,160,4.0,14.0,52,0.00,,,0.00,VWS V13.01,2013-06-20 17:36:00,
2013-06-20 12:40:00,88.7,69.9,29.96,SW,221,16.0,21.0,54,0.00,,,0.00,VWS V15.00,2013-06-20 17:40:00,
2013-06-20 12:41:00,89.8,69.8,29.95,SSW,210,12.0,18.0,52,0.00,,,0.00,VWS V13.01,2013-06-20 17:41:00,
2013-06-20 12:46:00,90.4,69.8,29.95,SW,214,13.0,20.0,51,0.00,,,0.00,VWS V13.01,2013-06-20 17:46:00,
2013-06-20 12:50:00,88.9,69.6,29.95,SW,226,6.0,16.0,53,0.00,,,0.00,VWS V15.00,2013-06-20 17:50:00,
2013-06-20 12:51:00,90.9,69.7,29.95,SSW,213,7.0,20.0,50,0.00,,,0.00,VWS V13.01,2013-06-20 17:51:00,
2013-06-20 12:56:00,91.5,70.2,29.95,SW,221,12.0,15.0,50,0.00,,,0.00,VWS V13.01,2013-06-20 17:56:00,
2013-06-20 13:00:00,90.4,70.4,29.95,SW,223,8.0,14.0,52,0.00,,,0.00,VWS V15.00,2013-06-20 18:00:00,
2013-06-20 13:01:00,92.3,70.4,29.94,WSW,238,8.0,15.0,49,0.00,,,0.00,VWS V13.01,2013-06-20 18:01:00,
2013-06-20 13:06:00,92.3,70.4,29.94,SSW,199,13.0,16.0,49,0.00,,,0.00,VWS V13.01,2013-06-20 18:06:00,
2013-06-20 13:10:00,89.3,71.0,29.95,WSW,240,9.0,14.0,55,0.00,,,0.00,VWS V15.00,2013-06-20 18:10:00,
2013-06-20 13:11:00,91.7,70.4,29.94,South,191,5.0,21.0,50,0.00,,,0.00,VWS V13.01,2013-06-20 18:11:00,
2013-06-20 13:16:00,90.8,67.8,29.94,SSW,200,16.0,18.0,47,0.00,,,0.00,VWS V13.01,2013-06-20 18:16:00,
2013-06-20 13:20:00,89.6,70.2,29.95,SW,223,8.0,13.0,53,0.00,,,0.00,VWS V15.00,2013-06-20 18:20:00,
2013-06-20 13:21:00,91.4,68.3,29.94,SSW,194,12.0,18.0,47,0.00,,,0.00,VWS V13.01,2013-06-20 18:21:00,
2013-06-20 13:26:00,92.1,68.4,29.94,WSW,249,16.0,20.0,46,0.00,,,0.00,VWS V13.01,2013-06-20 18:26:00,
2013-06-20 13:30:00,89.5,69.0,29.95,SW,225,4.0,16.0,51,0.00,,,0.00,VWS V15.00,2013-06-20 18:30:00,
2013-06-20 13:31:00,92.4,68.6,29.94,SW,223,8.0,20.0,46,0.00,,,0.00,VWS V13.01,2013-06-20 18:31:00,
2013-06-20 13:36:00,92.6,68.8,29.94,West,259,10.0,14.0,46,0.00,,,0.00,VWS V13.01,2013-06-20 18:36:00,
2013-06-20 13:40:00,89.9,69.9,29.95,SSW,207,20.0,20.0,52,0.00,,,0.00,VWS V15.00,2013-06-20 18:40:00,
2013-06-20 13:41:00,92.6,68.8,29.94,SSW,206,9.0,15.0,46,0.00,,,0.00,VWS V13.01,2013-06-20 18:41:00,
2013-06-20 13:46:00,92.5,68.7,29.93,WSW,238,14.0,18.0,46,0.00,,,0.00,VWS V13.01,2013-06-20 18:46:00,
2013-06-20 13:50:00,91.0,69.8,29.95,SW,230,14.0,20.0,50,0.00,,,0.00,VWS V15.00,2013-06-20 18:50:00,
2013-06-20 13:51:00,93.0,68.5,29.93,SW,236,7.0,18.0,45,0.00,,,0.00,VWS V13.01,2013-06-20 18:51:00,
2013-06-20 13:56:00,93.5,69.6,29.93,SSW,213,10.0,13.0,46,0.00,,,0.00,VWS V13.01,2013-06-20 18:56:00,
2013-06-20 14:00:00,92.3,69.8,29.94,SW,221,9.0,15.0,48,0.00,,,0.00,VWS V15.00,2013-06-20 19:00:00,
2013-06-20 14:01:00,93.8,69.3,29.93,SW,217,8.0,16.0,45,0.00,,,0.00,VWS V13.01,2013-06-20 19:01:00,
2013-06-20 14:06:00,93.6,69.1,29.93,SW,232,7.0,13.0,45,0.00,,,0.00,VWS V13.01,2013-06-20 19:06:00,
2013-06-20 14:10:00,91.7,70.4,29.94,South,191,13.0,21.0,50,0.00,,,0.00,VWS V15.00,2013-06-20 19:10:00,
2013-06-20 14:11:00,93.6,68.4,29.93,SSE,159,7.0,8.0,44,0.00,,,0.00,VWS V13.01,2013-06-20 19:11:00,
2013-06-20 14:16:00,93.8,68.6,29.92,WSW,241,9.0,14.0,44,0.00,,,0.00,VWS V13.01,2013-06-20 19:16:00,
2013-06-20 14:20:00,91.4,68.3,29.94,SSW,203,10.0,18.0,47,0.00,,,0.00,VWS V15.00,2013-06-20 19:20:00,
2013-06-20 14:21:00,94.1,68.2,29.92,SW,227,5.0,7.0,43,0.00,,,0.00,VWS V13.01,2013-06-20 19:21:00,
2013-06-20 14:26:00,94.4,67.8,29.92,SSW,200,9.0,19.0,42,0.00,,,0.00,VWS V13.01,2013-06-20 19:26:00,
2013-06-20 14:30:00,92.5,68.7,29.94,SW,224,8.0,20.0,46,0.00,,,0.00,VWS V15.00,2013-06-20 19:30:00,
2013-06-20 14:31:00,93.2,68.1,29.92,SW,216,18.0,18.0,44,0.00,,,0.00,VWS V13.01,2013-06-20 19:31:00,
2013-06-20 14:36:00,92.9,67.8,29.92,SSW,211,7.0,18.0,44,0.00,,,0.00,VWS V13.01,2013-06-20 19:36:00,
2013-06-20 14:40:00,92.6,68.8,29.94,SSW,206,11.0,15.0,46,0.00,,,0.00,VWS V15.00,2013-06-20 19:40:00,
2013-06-20 14:41:00,93.5,69.0,29.92,SSW,198,13.0,13.0,45,0.00,,,0.00,VWS V13.01,2013-06-20 19:41:00,
2013-06-20 14:46:00,93.9,68.7,29.91,WSW,245,9.0,15.0,44,0.00,,,0.00,VWS V13.01,2013-06-20 19:46:00,
2013-06-20 14:50:00,93.0,68.5,29.93,SW,236,7.0,18.0,45,0.00,,,0.00,VWS V15.00,2013-06-20 19:50:00,
2013-06-20 14:51:00,94.3,68.4,29.91,WSW,237,11.0,14.0,43,0.00,,,0.00,VWS V13.01,2013-06-20 19:51:00,
2013-06-20 14:56:00,94.7,68.7,29.91,SW,215,5.0,14.0,43,0.00,,,0.00,VWS V13.01,2013-06-20 19:56:00,
2013-06-20 15:00:00,93.8,69.3,29.93,SW,217,8.0,16.0,45,0.00,,,0.00,VWS V15.00,2013-06-20 20:00:00,
2013-06-20 15:01:00,94.6,68.0,29.91,SSE,153,15.0,15.0,42,0.00,,,0.00,VWS V13.01,2013-06-20 20:01:00,
2013-06-20 15:06:00,94.0,69.4,29.91,South,191,5.0,16.0,45,0.00,,,0.00,VWS V13.01,2013-06-20 20:06:00,
2013-06-20 15:10:00,93.6,68.4,29.93,SSE,165,8.0,14.0,44,0.00,,,0.00,VWS V15.00,2013-06-20 20:10:00,
2013-06-20 15:11:00,93.8,68.6,29.91,SW,217,6.0,8.0,44,0.00,,,0.00,VWS V13.01,2013-06-20 20:11:00,
2013-06-20 15:16:00,94.3,68.4,29.90,SW,232,6.0,14.0,43,0.00,,,0.00,VWS V13.01,2013-06-20 20:16:00,
2013-06-20 15:20:00,94.1,68.2,29.92,SW,227,7.0,14.0,43,0.00,,,0.00,VWS V15.00,2013-06-20 20:20:00,
2013-06-20 15:21:00,95.6,69.6,29.90,SSW,196,15.0,15.0,43,0.00,,,0.00,VWS V13.01,2013-06-20 20:21:00,
2013-06-20 15:26:00,95.6,68.2,29.90,SW,221,10.0,15.0,41,0.00,,,0.00,VWS V13.01,2013-06-20 20:26:00,
2013-06-20 15:30:00,93.2,68.1,29.92,WSW,250,8.0,20.0,44,0.00,,,0.00,VWS V15.00,2013-06-20 20:30:00,
2013-06-20 15:31:00,95.4,68.0,29.89,SSW,204,7.0,12.0,41,0.00,,,0.00,VWS V13.01,2013-06-20 20:31:00,
2013-06-20 15:36:00,94.9,67.5,29.89,SSW,213,6.0,15.0,41,0.00,,,0.00,VWS V13.01,2013-06-20 20:36:00,
2013-06-20 15:40:00,93.5,69.0,29.92,SW,227,7.0,18.0,45,0.00,,,0.00,VWS V15.00,2013-06-20 20:40:00,
2013-06-20 15:41:00,95.3,68.6,29.89,SSW,210,0.0,0.0,42,0.00,,,0.00,VWS V13.01,2013-06-20 20:41:00,
2013-06-20 15:46:00,95.8,69.0,29.89,WSW,242,6.0,16.0,42,0.00,,,0.00,VWS V13.01,2013-06-20 20:46:00,
2013-06-20 15:50:00,94.3,68.4,29.91,WSW,241,14.0,15.0,43,0.00,,,0.00,VWS V15.00,2013-06-20 20:50:00,
2013-06-20 15:51:00,96.4,68.9,29.89,SW,236,13.0,14.0,41,0.00,,,0.00,VWS V13.01,2013-06-20 20:51:00,
2013-06-20 15:56:00,96.0,67.1,29.89,SW,221,6.0,14.0,39,0.00,,,0.00,VWS V13.01,2013-06-20 20:56:00,
2013-06-20 16:00:00,94.7,68.1,29.91,SE,135,13.0,20.0,42,0.00,,,0.00,VWS V15.00,2013-06-20 21:00:00,
2013-06-20 16:02:00,95.8,66.9,29.89,SSE,156,8.0,18.0,39,0.00,,,0.00,VWS V13.01,2013-06-20 21:02:00,
2013-06-20 16:07:00,95.9,67.0,29.89,SW,219,9.0,17.0,39,0.00,,,0.00,VWS V13.01,2013-06-20 21:07:00,
2013-06-20 16:10:00,93.8,68.6,29.91,SSW,200,5.0,16.0,44,0.00,,,0.00,VWS V15.00,2013-06-20 21:10:00,
2013-06-20 16:12:00,95.8,66.9,29.89,SW,215,0.0,7.0,39,0.00,,,0.00,VWS V13.01,2013-06-20 21:12:00,
2013-06-20 16:17:00,95.3,67.9,29.89,South,181,7.0,12.0,41,0.00,,,0.00,VWS V13.01,2013-06-20 21:17:00,
2013-06-20 16:20:00,95.5,69.5,29.90,SW,217,8.0,16.0,43,0.00,,,0.00,VWS V15.00,2013-06-20 21:20:00,
2013-06-20 16:22:00,95.2,66.4,29.89,SSW,207,8.0,13.0,39,0.00,,,0.00,VWS V13.01,2013-06-20 21:22:00,
2013-06-20 16:27:00,94.5,66.5,29.89,SW,218,10.0,14.0,40,0.00,,,0.00,VWS V13.01,2013-06-20 21:27:00,
2013-06-20 16:30:00,95.4,68.0,29.89,SSW,213,7.0,15.0,41,0.00,,,0.00,VWS V15.00,2013-06-20 21:30:00,
2013-06-20 16:32:00,95.0,66.9,29.88,SSE,152,0.0,12.0,40,0.00,,,0.00,VWS V13.01,2013-06-20 21:32:00,
2013-06-20 16:37:00,95.4,65.8,29.88,SSW,198,9.0,14.0,38,0.00,,,0.00,VWS V13.01,2013-06-20 21:37:00,
2013-06-20 16:40:00,95.3,68.6,29.89,SSW,211,0.0,15.0,42,0.00,,,0.00,VWS V15.00,2013-06-20 21:40:00,
2013-06-20 16:42:00,95.4,66.5,29.88,South,173,9.0,16.0,39,0.00,,,0.00,VWS V13.01,2013-06-20 21:42:00,
2013-06-20 16:47:00,95.3,67.2,29.87,SW,232,0.0,16.0,40,0.00,,,0.00,VWS V13.01,2013-06-20 21:47:00,
2013-06-20 16:50:00,96.3,68.8,29.89,SW,221,8.0,16.0,41,0.00,,,0.00,VWS V15.00,2013-06-20 21:50:00,
2013-06-20 16:52:00,95.9,67.7,29.87,SSW,202,3.0,10.0,40,0.00,,,0.00,VWS V13.01,2013-06-20 21:52:00,
2013-06-20 16:57:00,96.3,67.3,29.87,SSW,202,7.0,16.0,39,0.00,,,0.00,VWS V13.01,2013-06-20 21:57:00,
2013-06-20 17:00:00,95.8,66.9,29.89,SSE,156,8.0,18.0,39,0.00,,,0.00,VWS V15.00,2013-06-20 22:00:00,
2013-06-20 17:02:00,95.7,67.5,29.87,South,182,8.0,8.0,40,0.00,,,0.00,VWS V13.01,2013-06-20 22:02:00,
2013-06-20 17:07:00,95.5,67.4,29.87,SE,137,3.0,11.0,40,0.00,,,0.00,VWS V13.01,2013-06-20 22:07:00,
2013-06-20 17:10:00,95.9,67.0,29.89,WSW,244,6.0,17.0,39,0.00,,,0.00,VWS V15.00,2013-06-20 22:10:00,
2013-06-20 17:12:00,95.0,66.9,29.87,South,187,13.0,16.0,40,0.00,,,0.00,VWS V13.01,2013-06-20 22:12:00,
2013-06-20 17:17:00,94.8,66.7,29.86,SW,226,0.0,16.0,40,0.00,,,0.00,VWS V13.01,2013-06-20 22:17:00,
2013-06-20 17:20:00,95.3,66.4,29.89,SSW,198,12.0,21.0,39,0.00,,,0.00,VWS V15.00,2013-06-20 22:20:00,
2013-06-20 17:22:00,95.3,67.9,29.86,South,185,1.0,13.0,41,0.00,,,0.00,VWS V13.01,2013-06-20 22:22:00,
2013-06-20 17:27:00,94.6,66.6,29.86,South,189,13.0,16.0,40,0.00,,,0.00,VWS V13.01,2013-06-20 22:27:00,
2013-06-20 17:30:00,94.8,67.4,29.88,South,175,11.0,14.0,41,0.00,,,0.00,VWS V15.00,2013-06-20 22:30:00,
2013-06-20 17:32:00,94.7,68.1,29.86,SW,223,12.0,12.0,42,0.00,,,0.00,VWS V13.01,2013-06-20 22:32:00,
2013-06-20 17:37:00,95.3,68.6,29.86,SSW,195,0.0,12.0,42,0.00,,,0.00,VWS V13.01,2013-06-20 22:37:00,
2013-06-20 17:40:00,95.4,66.5,29.88,SSW,202,11.0,15.0,39,0.00,,,0.00,VWS V15.00,2013-06-20 22:40:00,
2013-06-20 17:42:00,96.0,68.5,29.86,SW,236,0.0,0.0,41,0.00,,,0.00,VWS V13.01,2013-06-20 22:42:00,
2013-06-20 17:47:00,96.3,68.8,29.86,SSW,207,0.0,14.0,41,0.00,,,0.00,VWS V13.01,2013-06-20 22:47:00,
2013-06-20 17:50:00,95.8,66.9,29.87,SW,230,10.0,16.0,39,0.00,,,0.00,VWS V15.00,2013-06-20 22:50:00,
2013-06-20 17:52:00,96.0,67.8,29.86,SSE,153,11.0,11.0,40,0.00,,,0.00,VWS V13.01,2013-06-20 22:52:00,
2013-06-20 17:57:00,95.1,67.7,29.86,South,169,6.0,13.0,41,0.00,,,0.00,VWS V13.01,2013-06-20 22:57:00,
2013-06-20 18:00:00,95.8,67.6,29.87,ESE,122,0.0,16.0,40,0.00,,,0.00,VWS V15.00,2013-06-20 23:00:00,
2013-06-20 18:02:00,94.5,67.9,29.85,South,173,9.0,15.0,42,0.00,,,0.00,VWS V13.01,2013-06-20 23:02:00,
2013-06-20 18:07:00,94.4,67.1,29.85,South,175,4.0,16.0,41,0.00,,,0.00,VWS V13.01,2013-06-20 23:07:00,
2013-06-20 18:10:00,95.1,67.7,29.87,SSW,192,10.0,15.0,41,0.00,,,0.00,VWS V15.00,2013-06-20 23:10:00,
2013-06-20 18:12:00,94.4,67.1,29.85,SSW,202,0.0,11.0,41,0.00,,,0.00,VWS V13.01,2013-06-20 23:12:00,
2013-06-20 18:17:00,94.4,67.1,29.85,South,191,7.0,16.0,41,0.00,,,0.00,VWS V13.01,2013-06-20 23:17:00,
2013-06-20 18:20:00,95.3,67.9,29.86,SW,227,2.0,16.0,41,0.00,,,0.00,VWS V15.00,2013-06-20 23:20:00,
2013-06-20 18:22:00,94.1,66.8,29.85,SSW,202,8.0,14.0,41,0.00,,,0.00,VWS V13.01,2013-06-20 23:22:00,
2013-06-20 18:27:00,94.1,66.1,29.85,SSW,199,16.0,16.0,40,0.00,,,0.00,VWS V13.01,2013-06-20 23:27:00,
2013-06-20 18:30:00,94.6,68.0,29.86,SW,218,6.0,16.0,42,0.00,,,0.00,VWS V15.00,2013-06-20 23:30:00,
2013-06-20 18:32:00,94.2,66.9,29.84,SW,234,7.0,11.0,41,0.00,,,0.00,VWS V13.01,2013-06-20 23:32:00,
2013-06-20 18:37:00,94.3,66.3,29.84,SW,227,5.0,16.0,40,0.00,,,0.00,VWS V13.01,2013-06-20 23:37:00,
2013-06-20 18:40:00,95.7,69.6,29.86,SSW,212,0.0,12.0,43,0.00,,,0.00,VWS V15.00,2013-06-20 23:40:00,
2013-06-20 18:42:00,94.4,65.7,29.84,SE,136,1.0,10.0,39,0.00,,,0.00,VWS V13.01,2013-06-20 23:42:00,
2013-06-20 18:48:00,94.4,65.7,29.84,SW,225,6.0,14.0,39,0.00,,,0.00,VWS V13.01,2013-06-20 23:48:00,
2013-06-20 18:50:00,96.2,68.7,29.86,South,173,5.0,14.0,41,0.00,,,0.00,VWS V15.00,2013-06-20 23:50:00,
2013-06-20 18:53:00,94.4,66.4,29.84,SSE,156,10.0,10.0,40,0.00,,,0.00,VWS V13.01,2013-06-20 23:53:00,
2013-06-20 18:58:00,94.2,65.5,29.84,SSW,198,7.0,11.0,39,0.00,,,0.00,VWS V13.01,2013-06-20 23:58:00,
2013-06-20 19:00:00,94.6,67.3,29.85,SSE,147,3.0,14.0,41,0.00,,,0.00,VWS V15.00,2013-06-21 00:00:00,
2013-06-20 19:03:00,94.2,66.9,29.84,SSW,196,0.0,0.0,41,0.00,,,0.00,VWS V13.01,2013-06-21 00:03:00,
2013-06-20 19:08:00,94.2,66.2,29.84,SSW,202,2.0,11.0,40,0.00,,,0.00,VWS V13.01,2013-06-21 00:08:00,
2013-06-20 19:10:00,94.4,67.1,29.85,SE,133,9.0,16.0,41,0.00,,,0.00,VWS V15.00,2013-06-21 00:10:00,
2013-06-20 19:13:00,94.2,66.2,29.84,WSW,240,7.0,13.0,40,0.00,,,0.00,VWS V13.01,2013-06-21 00:13:00,
2013-06-20 19:18:00,94.0,66.0,29.84,SSE,157,5.0,13.0,40,0.00,,,0.00,VWS V13.01,2013-06-21 00:18:00,
2013-06-20 19:20:00,94.1,66.8,29.85,WSW,242,10.0,16.0,41,0.00,,,0.00,VWS V15.00,2013-06-21 00:20:00,
2013-06-20 19:23:00,93.7,67.8,29.84,SSW,192,6.0,11.0,43,0.00,,,0.00,VWS V13.01,2013-06-21 00:23:00,
2013-06-20 19:28:00,93.3,67.5,29.84,SSW,196,8.0,13.0,43,0.00,,,0.00,VWS V13.01,2013-06-21 00:28:00,
2013-06-20 19:30:00,94.2,66.2,29.84,SSW,197,9.0,17.0,40,0.00,,,0.00,VWS V15.00,2013-06-21 00:30:00,
2013-06-20 19:33:00,92.8,67.0,29.84,SE,130,0.0,13.0,43,0.00,,,0.00,VWS V13.01,2013-06-21 00:33:00,
2013-06-20 19:38:00,92.5,67.4,29.84,South,171,8.0,15.0,44,0.00,,,0.00,VWS V13.01,2013-06-21 00:38:00,
2013-06-20 19:40:00,94.4,65.7,29.84,South,188,1.0,16.0,39,0.00,,,0.00,VWS V15.00,2013-06-21 00:40:00,
2013-06-20 19:43:00,92.2,67.2,29.84,South,170,5.0,12.0,44,0.00,,,0.00,VWS V13.01,2013-06-21 00:43:00,
2013-06-20 19:48:00,91.9,66.9,29.85,SE,140,13.0,16.0,44,0.00,,,0.00,VWS V13.01,2013-06-21 00:48:00,
2013-06-20 19:50:00,94.4,64.9,29.84,SSW,197,5.0,14.0,38,0.00,,,0.00,VWS V15.00,2013-06-21 00:50:00,
2013-06-20 19:53:00,91.8,66.8,29.85,SE,134,3.0,12.0,44,0.00,,,0.00,VWS V13.01,2013-06-21 00:53:00,
2013-06-20 19:58:00,91.6,66.6,29.85,SSE,162,5.0,17.0,44,0.00,,,0.00,VWS V13.01,2013-06-21 00:58:00,
2013-06-20 20:00:00,94.2,66.2,29.84,SSW,202,0.0,11.0,40,0.00,,,0.00,VWS V15.00,2013-06-21 01:00:00,
2013-06-20 20:03:00,91.4,66.4,29.85,SSE,167,8.0,13.0,44,0.00,,,0.00,VWS V13.01,2013-06-21 01:03:00,
2013-06-20 20:08:00,91.3,66.3,29.85,South,190,13.0,13.0,44,0.00,,,0.00,VWS V13.01,2013-06-21 01:08:00,
2013-06-20 20:10:00,94.2,66.2,29.84,SSW,196,2.0,11.0,40,0.00,,,0.00,VWS V15.00,2013-06-21 01:10:00,
2013-06-20 20:13:00,91.1,66.2,29.85,South,169,0.0,13.0,44,0.00,,,0.00,VWS V13.01,2013-06-21 01:13:00,
2013-06-20 20:18:00,90.9,66.0,29.85,SE,143,3.0,13.0,44,0.00,,,0.00,VWS V13.01,2013-06-21 01:18:00,
2013-06-20 20:20:00,93.8,67.2,29.84,SE,136,3.0,14.0,42,0.00,,,0.00,VWS V15.00,2013-06-21 01:20:00,
2013-06-20 20:23:00,90.7,65.8,29.85,South,178,4.0,12.0,44,0.00,,,0.00,VWS V13.01,2013-06-21 01:23:00,
2013-06-20 20:28:00,90.6,65.7,29.85,ESE,121,7.0,15.0,44,0.00,,,0.00,VWS V13.01,2013-06-21 01:28:00,
2013-06-20 20:30:00,93.0,67.2,29.84,South,170,7.0,15.0,43,0.00,,,0.00,VWS V15.00,2013-06-21 01:30:00,
2013-06-20 20:33:00,90.4,65.5,29.85,SSE,162,7.0,15.0,44,0.00,,,0.00,VWS V13.01,2013-06-21 01:33:00,
2013-06-20 20:38:00,90.2,66.0,29.85,South,183,0.0,15.0,45,0.00,,,0.00,VWS V13.01,2013-06-21 01:38:00,
2013-06-20 20:40:00,92.3,67.2,29.84,SE,140,8.0,15.0,44,0.00,,,0.00,VWS V15.00,2013-06-21 01:40:00,
2013-06-20 20:43:00,90.0,65.8,29.85,South,171,0.0,14.0,45,0.00,,,0.00,VWS V13.01,2013-06-21 01:43:00,
2013-06-20 20:48:00,89.9,65.7,29.86,SSE,165,10.0,14.0,45,0.00,,,0.00,VWS V13.01,2013-06-21 01:48:00,
2013-06-20 20:50:00,91.8,66.8,29.85,SE,138,9.0,16.0,44,0.00,,,0.00,VWS V15.00,2013-06-21 01:50:00,
2013-06-20 20:53:00,89.7,65.6,29.86,SE,138,7.0,11.0,45,0.00,,,0.00,VWS V13.01,2013-06-21 01:53:00,
2013-06-20 20:58:00,89.5,66.0,29.86,SE,128,5.0,13.0,46,0.00,,,0.00,VWS V13.01,2013-06-21 01:58:00,
2013-06-20 21:00:00,91.5,66.5,29.85,SSW,198,3.0,17.0,44,0.00,,,0.00,VWS V15.00,2013-06-21 02:00:00,
2013-06-20 21:03:00,89.3,65.8,29.86,South,177,0.0,12.0,46,0.00,,,0.00,VWS V13.01,2013-06-21 02:03:00,
2013-06-20 21:08:00,89.1,65.6,29.86,SE,130,6.0,12.0,46,0.00,,,0.00,VWS V13.01,2013-06-21 02:08:00,
2013-06-20 21:10:00,91.1,66.2,29.85,SE,144,4.0,14.0,44,0.00,,,0.00,VWS V15.00,2013-06-21 02:10:00,
2013-06-20 21:13:00,88.8,66.0,29.86,SSE,154,5.0,9.0,47,0.00,,,0.00,VWS V13.01,2013-06-21 02:13:00,
2013-06-20 21:18:00,88.6,66.4,29.86,SSE,157,3.0,16.0,48,0.00,,,0.00,VWS V13.01,2013-06-21 02:18:00,
2013-06-20 21:20:00,90.8,65.9,29.85,SE,145,10.0,13.0,44,0.00,,,0.00,VWS V15.00,2013-06-21 02:20:00,
2013-06-20 21:23:00,88.4,66.2,29.86,South,171,0.0,6.0,48,0.00,,,0.00,VWS V13.01,2013-06-21 02:23:00,
2013-06-20 21:28:00,88.2,66.7,29.86,SSE,157,3.0,12.0,49,0.00,,,0.00,VWS V13.01,2013-06-21 02:28:00,
2013-06-20 21:30:00,90.5,65.6,29.85,SSE,156,0.0,15.0,44,0.00,,,0.00,VWS V15.00,2013-06-21 02:30:00,
2013-06-20 21:34:00,88.0,67.1,29.87,South,188,2.0,14.0,50,0.00,,,0.00,VWS V13.01,2013-06-21 02:34:00,
2013-06-20 21:39:00,87.7,67.3,29.87,SSE,153,14.0,18.0,51,0.00,,,0.00,VWS V13.01,2013-06-21 02:39:00,
2013-06-20 21:40:00,90.1,65.9,29.85,SE,126,7.0,15.0,45,0.00,,,0.00,VWS V15.00,2013-06-21 02:40:00,
2013-06-20 21:44:00,87.4,67.6,29.87,South,186,17.0,17.0,52,0.00,,,0.00,VWS V13.01,2013-06-21 02:44:00,
2013-06-20 21:49:00,87.2,68.0,29.88,SSE,160,0.0,17.0,53,0.00,,,0.00,VWS V13.01,2013-06-21 02:49:00,
2013-06-20 21:50:00,89.8,65.6,29.86,South,176,1.0,14.0,45,0.00,,,0.00,VWS V15.00,2013-06-21 02:50:00,
2013-06-20 21:54:00,87.1,68.4,29.88,SSE,158,4.0,10.0,54,0.00,,,0.00,VWS V13.01,2013-06-21 02:54:00,
2013-06-20 21:59:00,86.9,68.3,29.88,SSW,211,8.0,15.0,54,0.00,,,0.00,VWS V13.01,2013-06-21 02:59:00,
2013-06-20 22:00:00,89.4,65.9,29.86,South,182,0.0,13.0,46,0.00,,,0.00,VWS V15.00,2013-06-21 03:00:00,
2013-06-20 22:04:00,86.6,68.5,29.89,SSW,195,0.0,13.0,55,0.00,,,0.00,VWS V13.01,2013-06-21 03:04:00,
2013-06-20 22:09:00,86.4,68.3,29.89,SSE,153,2.0,17.0,55,0.00,,,0.00,VWS V13.01,2013-06-21 03:09:00,
2013-06-20 22:10:00,88.9,66.1,29.86,SE,128,7.0,14.0,47,0.00,,,0.00,VWS V15.00,2013-06-21 03:10:00,
2013-06-20 22:14:00,86.3,68.2,29.89,SSE,159,7.0,18.0,55,0.00,,,0.00,VWS V13.01,2013-06-21 03:14:00,
2013-06-20 22:19:00,86.0,68.5,29.90,SE,144,9.0,18.0,56,0.00,,,0.00,VWS V13.01,2013-06-21 03:19:00,
2013-06-20 22:20:00,88.5,66.3,29.86,SSE,157,0.0,16.0,48,0.00,,,0.00,VWS V15.00,2013-06-21 03:20:00,
2013-06-20 22:24:00,85.9,68.9,29.90,SSE,165,5.0,13.0,57,0.00,,,0.00,VWS V13.01,2013-06-21 03:24:00,
2013-06-20 22:29:00,85.6,69.1,29.90,SSE,165,0.0,16.0,58,0.00,,,0.00,VWS V13.01,2013-06-21 03:29:00,
2013-06-20 22:34:00,85.4,69.0,29.91,South,176,12.0,15.0,58,0.00,,,0.00,VWS V13.01,2013-06-21 03:34:00,
2013-06-20 22:39:00,85.2,69.3,29.91,SSE,165,7.0,15.0,59,0.00,,,0.00,VWS V13.01,2013-06-21 03:39:00,
2013-06-20 22:44:00,84.9,69.5,29.91,SSW,195,0.0,10.0,60,0.00,,,0.00,VWS V13.01,2013-06-21 03:44:00,
2013-06-20 22:49:00,84.7,69.8,29.92,South,178,0.0,10.0,61,0.00,,,0.00,VWS V13.01,2013-06-21 03:49:00,
2013-06-20 22:50:00,87.1,67.9,29.88,SSE,162,8.0,17.0,53,0.00,,,0.00,VWS V15.00,2013-06-21 03:50:00,
2013-06-20 22:54:00,84.5,69.6,29.92,SSW,213,0.0,12.0,61,0.00,,,0.00,VWS V13.01,2013-06-21 03:54:00,
2013-06-20 22:59:00,84.3,69.9,29.92,SSW,205,3.0,13.0,62,0.00,,,0.00,VWS V13.01,2013-06-21 03:59:00,
2013-06-20 23:00:00,86.7,68.6,29.89,South,173,0.0,15.0,55,0.00,,,0.00,VWS V15.00,2013-06-21 04:00:00,
2013-06-20 23:01:00,84.2,69.8,29.93,SSE,159,0.0,13.0,62,0.00,,,0.00,VWS V13.01,2013-06-21 04:01:00,
2013-06-20 23:06:00,84.0,70.1,29.93,SSE,165,0.0,5.0,63,0.00,,,0.00,VWS V13.01,2013-06-21 04:06:00,
2013-06-20 23:10:00,86.3,68.2,29.89,SSE,157,18.0,18.0,55,0.00,,,0.00,VWS V15.00,2013-06-21 04:10:00,
2013-06-20 23:11:00,83.9,70.4,29.93,SSW,194,9.0,13.0,64,0.00,,,0.00,VWS V13.01,2013-06-21 04:11:00,
2013-06-20 23:17:00,83.6,70.6,29.94,SSE,165,0.0,13.0,65,0.00,,,0.00,VWS V13.01,2013-06-21 04:17:00,
2013-06-20 23:20:00,85.9,68.4,29.90,SSE,151,9.0,18.0,56,0.00,,,0.00,VWS V15.00,2013-06-21 04:20:00,
2013-06-20 23:21:00,83.5,70.9,29.94,SSE,165,0.0,7.0,66,0.00,,,0.00,VWS V13.01,2013-06-21 04:21:00,
2013-06-20 23:27:00,83.3,70.8,29.94,SSW,196,0.0,9.0,66,0.00,,,0.00,VWS V13.01,2013-06-21 04:27:00,
2013-06-20 23:30:00,85.5,69.1,29.91,SSW,205,7.0,16.0,58,0.00,,,0.00,VWS V15.00,2013-06-21 04:30:00,
2013-06-20 23:32:00,83.0,70.9,29.95,SSW,204,7.0,8.0,67,0.00,,,0.00,VWS V13.01,2013-06-21 04:32:00,
2013-06-20 23:37:00,82.9,71.3,29.95,SSW,206,10.0,11.0,68,0.00,,,0.00,VWS V13.01,2013-06-21 04:37:00,
2013-06-20 23:40:00,85.0,69.6,29.91,SSW,200,7.0,15.0,60,0.00,,,0.00,VWS V15.00,2013-06-21 04:40:00,
2013-06-20 23:42:00,82.7,71.1,29.95,SSW,202,0.0,3.0,68,0.00,,,0.00,VWS V13.01,2013-06-21 04:42:00,
2013-06-20 23:47:00,82.5,71.3,29.95,SSW,192,7.0,12.0,69,0.00,,,0.00,VWS V13.01,2013-06-21 04:47:00,
2013-06-20 23:50:00,84.6,69.7,29.92,SSE,159,5.0,10.0,61,0.00,,,0.00,VWS V15.00,2013-06-21 04:50:00,
2013-06-20 23:52:00,82.3,71.5,29.95,SW,233,0.0,0.0,70,0.00,,,0.00,VWS V13.01,2013-06-21 04:52:00,
2013-06-20 23:57:00,82.1,71.3,29.95,SW,223,8.0,10.0,70,0.00,,,0.00,VWS V13.01,2013-06-21 04:57:00,